Huvudsida
METAR-TAF:

METAR-TAF

Flygplatser :

Hamads internationella flygplats

Doha, Qatar

latitud: 25-16-23N, longitud: 51-36-29E, höjd: 4 m

Aktuellt väderrapport

Denna rapport gjordes för 1 timme och 14 minuter sedan, klockan 13:00 UTC
Vind 8 kt från nord/nordost
Temperatur 39°C
Fuktighet 31%
Tryck 999 hPa
Sikt 10 km eller mer
Inga moln under 1 500 m eller inga cumulonimbus

METAR: OTHH 241300Z AUTO 02008KT CAVOK 39/19 Q0999 NOSIG

Tid: 17:14 (14:14 UTC)

Väderprognos

Denna rapport gjordes för 3 timmar och 15 minuter sedan, klockan 10:59 UTC
Prognos gäller från 24 kl. 12 UTC till 25 kl. 18 UTC
Vind 10 kt från nord/nordost
Sikt: 8000 m
Blir
från 24 kl. 17 UTC till 24 kl. 19 UTC
Vind 5 kt från nordväst

TAF: OTHH 241059Z 2412/2518 02010KT 8000 NSC BECMG 2417/2419 31005KT

Aktuella väderrapporter och prognoser från 4000 flygplatser (METAR- och TAF-rapporter).

De tillgängliga stationerna syns som gula och röda prickar på kartan.

För musen över prickarna för att se namnen på stationerna.

Klicka sedan för att få väderrapporter och prognoser.

För att ändra kartan: Klicka på de gröna knapparna med ett svart kors på för att zooma in; den gröna knappen med ett streck på för att zooma ut; eller på de gröna pilarna för angränsande kartor.


METAR-TAF: